Terminal Aerodrome Forecast
Issued by NWS Blacksburg, VA

Current Version | Previous Version | Graphics & Text | Print | Product List | Glossary On
Versions: 1 2 3 4 5 6 7 8 9 10 11 12 13 14 15 16 17 18 19 20 21 22
000
FTUS41 KRNK 281737
TAFBLF
TAF
KBLF 281737Z 2818/2918 26013G20KT P6SM BKN040
     FM282000 26012G20KT P6SM VCTS BKN025CB
     FM282300 27008KT P6SM BKN050
     FM290700 27009KT P6SM SCT015=

USA.gov is the U.S. government's official web portal to all federal, state and local government web resources and services.